Nearby METAR Reports

 

KSJC - San Jose, California, USA
Distance from station: NE 9mi, 14km
Updated: Mon, 22-Dec-2014 10:53am PST
Overcast
Overcast
 Wind from WNW
Wind: WNW 8 mph , 13 km/h
Temperature: 59°F , 15°C
Dew Point: 54°F , 12°C
Humidity: 82%
Barometer: 30.28 inHg , 1025.4 hPa
Clouds: Overcast
Visibility: 10 miles , 16 km
Cloud details: Few Clouds 600 ft
Mostly cloudy 1500 ft
Overcast 2700 ft
2014/12/22 18:53 KSJC 221853Z 29007KT 10SM FEW006 BKN015 OVC027 15/12 A3028 RMK AO2 SLP252 T01500122
KNUQ - Moffett Nas/Mtn, California, USA
Distance from station: N 9mi, 14km
Updated: Mon, 22-Dec-2014 10:56am PST
Overcast
Overcast
 Wind from NW
Wind: NW 9 mph , 15 km/h
Temperature: 61°F , 16°C
Dew Point: 55°F , 13°C
Humidity: 83%
Barometer: 30.29 inHg , 1025.7 hPa
Clouds: Overcast
Visibility: 10 miles , 16 km
Cloud details: Overcast 1500 ft
2014/12/22 18:56 KNUQ 221856Z 32008KT 10SM OVC015 16/13 A3029 RMK AO2 SLP259 T01560128
 
KPAO - Palo Alto, California, USA
Distance from station: NNW 14mi, 23km
Updated: Mon, 22-Dec-2014 11:15am PST
Mostly cloudy
Mostly cloudy
 Wind from NW
Wind: NW 8 mph , 13 km/h
Temperature: 61°F , 16°C
Barometer: 30.28 inHg , 1025.4 hPa
Clouds: Mostly cloudy
Visibility: 7 miles , 11 km
Cloud details: Mostly cloudy 1500 ft
2014/12/22 19:15 KPAO 221915Z 31007KT 7SM BKN015 16/ A3028
KRHV - San Jose/Reid, California, USA
Distance from station: ENE 12mi, 19km
Updated: Mon, 22-Dec-2014 9:55am PST
NOT Current
Mostly cloudy
Mostly cloudy
 Wind from W
Wind: W 9 mph , 15 km/h
Temperature: 61°F , 16°C
Dew Point: 57°F , 14°C
Humidity: 88%
Barometer: 30.29 inHg , 1025.7 hPa
Clouds: Mostly cloudy
Visibility: 10 miles , 16 km
Cloud details: Mostly cloudy 1500 ft
Mostly cloudy 2500 ft
2014/12/22 17:55 KRHV 221755Z 28008KT 10SM BKN015 BKN025 16/14 A3029
 
KOAK - Oakland, California, USA
Distance from station: NNW 31mi, 50km
Updated: Mon, 22-Dec-2014 11:44am PST
Mist, Mostly cloudy
Mist, Mostly cloudy
 Wind from W
Wind: W 6 mph , 9 km/h
Temperature: 55°F , 13°C
Dew Point: 55°F , 13°C
Humidity: 100%
Barometer: 30.26 inHg , 1024.7 hPa
Summary: Mist
Clouds: Mostly cloudy
Visibility: 4 miles , 6 km
Cloud details: Few Clouds 100 ft
Partly cloudy 600 ft
Mostly cloudy 1600 ft
2014/12/22 19:44 KOAK 221944Z 28005KT 4SM BR FEW001 SCT006 BKN016 13/13 A3026 RMK AO2 VIS SW 2
KSQL - San Carlos Airpo, California, USA
Distance from station: NW 21mi, 34km
Updated: Mon, 22-Dec-2014 11:30am PST
Mist, Mostly cloudy
Mist, Mostly cloudy
 Wind from NE
Wind: NE 5 mph , 7 km/h
Temperature: 57°F , 14°C
Dew Point: 57°F , 14°C
Humidity: 100%
Barometer: 30.29 inHg , 1025.7 hPa
Summary: Mist
Clouds: Mostly cloudy
Visibility: 2 1/2 miles , 2 km
Cloud details: Mostly cloudy 500 ft
2014/12/22 19:30 KSQL 221930Z 04004KT 2 1/2SM BR BKN005 14/14 A3029
 
KSFO - San Francisco, California, USA
Distance from station: NW 30mi, 49km
Updated: Mon, 22-Dec-2014 11:38am PST
Fog, Overcast
Fog, Overcast
 Wind from ENE
Wind: ENE 5 mph , 7 km/h
Temperature: 55°F , 13°C
Dew Point: 55°F , 13°C
Humidity: 100%
Barometer: 30.27 inHg , 1025.1 hPa
Summary: Fog
Clouds: Overcast
Visibility: 1/8 mile , 2 km
Cloud details: Overcast 100 ft
2014/12/22 19:38 KSFO 221938Z 06004KT 1/8SM R28R/1200V2800FT FG VV001 13/13 A3027 RMK AO2
KE16 - San Martin, California, USA
Distance from station: ESE 27mi, 43km
Updated: Mon, 22-Dec-2014 11:35am PST
Overcast
Overcast
 Wind from NNW
Wind: NNW 8 mph , 13 km/h
Temperature: 59°F , 15°C
Dew Point: 57°F , 14°C
Humidity: 94%
Barometer: 30.27 inHg , 1025.1 hPa
Clouds: Overcast
Visibility: 10 miles , 16 km
Cloud details: Overcast 1400 ft
2014/12/22 19:35 KE16 221935Z AUTO 34007KT 10SM OVC014 15/14 A3027 RMK AO2 PWINO PNO
 
KWVI - Watsonville, California, USA
Distance from station: SSE 27mi, 44km
Updated: Mon, 22-Dec-2014 10:53am PST
Clear
Clear
 Wind from SSW
Wind: SSW 6 mph , 9 km/h
Temperature: 63°F , 17°C
Dew Point: 57°F , 14°C
Humidity: 83%
Barometer: 30.25 inHg , 1024.4 hPa
Clouds: Clear
Visibility: 10 miles , 16 km
2014/12/22 18:53 KWVI 221853Z AUTO 20005KT 10SM CLR 17/14 A3025 RMK AO2 SLP244 T01720139
KHAF - Half Moon Bay, California, USA
Distance from station: WNW 31mi, 50km
Updated: Mon, 22-Dec-2014 11:35am PST
Mist, Overcast
Mist, Overcast
 Wind from N
Wind: N 8 mph , 13 km/h
Temperature: 61°F , 16°C
Dew Point: 57°F , 14°C
Humidity: 88%
Barometer: 30.27 inHg , 1025.1 hPa
Summary: Mist
Clouds: Overcast
Visibility: 6 miles , 10 km
Cloud details: Overcast 1200 ft
2014/12/22 19:35 KHAF 221935Z AUTO 01007KT 6SM BR OVC012 16/14 A3027 RMK AO2
 
KHWD - Hayward, California, USA
Distance from station: N 28mi, 44km
Updated: Mon, 22-Dec-2014 10:54am PST
Overcast
Overcast
 Wind from W
Wind: W 7 mph , 11 km/h
Temperature: 59°F , 15°C
Dew Point: 55°F , 13°C
Humidity: 88%
Barometer: 30.28 inHg , 1025.4 hPa
Clouds: Overcast
Visibility: 10 miles , 16 km
Cloud details: Overcast 1500 ft
2014/12/22 18:54 KHWD 221854Z 27006KT 10SM OVC015 15/13 A3028 RMK AO2 SLP264 T01500133
KLVK - Livermore, California, USA
Distance from station: NNE 31mi, 51km
Updated: Mon, 22-Dec-2014 10:53am PST
Overcast
Overcast
 Wind from NE
Wind: NE 8 mph , 13 km/h
Temperature: 61°F , 16°C
Dew Point: 54°F , 12°C
Humidity: 77%
Barometer: 30.28 inHg , 1025.4 hPa
Clouds: Overcast
Visibility: 10 miles , 16 km
Cloud details: Overcast 1300 ft
2014/12/22 18:53 KLVK 221853Z 05007KT 10SM OVC013 16/12 A3028 RMK AO2 SLP252 T01610122